Time;durP1;ratioP1;P1;durP2;ratioP2;P2;SDS_P1;SDS_P2;PMS_P1;PMS_P2;Temp;Humidity;BMP_temperature;BMP_pressure;BME280_temperature;BME280_humidity;BME280_pressure;Samples;Min_cycle;Max_cycle;Signal;HPM_P1;HPM_P2
2021/05/22 00:00:24;;;;;;;0.77;0.50;;;13.20;92.50;;;;;;5090856;28;20228;-57
2021/05/22 00:02:50;;;;;;;2.70;0.77;;;13.20;92.60;;;;;;5091070;28;20204;-58
2021/05/22 00:05:17;;;;;;;1.60;0.40;;;13.20;92.50;;;;;;5090509;28;20624;-58
2021/05/22 00:07:43;;;;;;;2.87;0.80;;;13.20;92.40;;;;;;5090842;28;20208;-58
2021/05/22 00:10:12;;;;;;;0.70;0.53;;;13.20;92.40;;;;;;5090871;28;20250;-58
2021/05/22 00:12:38;;;;;;;2.93;0.73;;;13.30;92.40;;;;;;5092796;28;20342;-58
2021/05/22 00:15:07;;;;;;;2.23;0.60;;;13.30;92.30;;;;;;5094302;28;20660;-58
2021/05/22 00:17:33;;;;;;;0.70;0.50;;;13.40;92.30;;;;;;5094409;28;20204;-58
2021/05/22 00:20:00;;;;;;;2.03;0.70;;;13.20;92.40;;;;;;5094082;28;20224;-58
2021/05/22 00:22:27;;;;;;;6.40;1.00;;;13.10;92.50;;;;;;5094691;28;20268;-58
2021/05/22 00:24:53;;;;;;;1.83;1.07;;;13.10;92.60;;;;;;5093945;28;20666;-58
2021/05/22 00:27:20;;;;;;;0.97;0.40;;;13.00;92.70;;;;;;5094358;28;20208;-58
2021/05/22 00:29:46;;;;;;;1.90;0.70;;;13.00;92.80;;;;;;5093998;28;20512;-58
2021/05/22 00:32:12;;;;;;;5.83;0.97;;;13.00;92.70;;;;;;5094230;28;20204;-58
2021/05/22 00:34:38;;;;;;;4.60;0.83;;;13.10;92.50;;;;;;5093867;28;20204;-58
2021/05/22 00:37:05;;;;;;;0.70;0.40;;;13.10;92.50;;;;;;5094478;28;20205;-58
2021/05/22 00:39:31;;;;;;;0.87;0.60;;;13.10;92.40;;;;;;5093890;28;20212;-58
2021/05/22 00:41:58;;;;;;;1.83;0.90;;;13.10;92.30;;;;;;5094062;28;20551;-58
2021/05/22 00:44:30;;;;;;;1.70;0.70;;;13.10;92.10;;;;;;5093685;28;20214;-58
2021/05/22 00:46:56;;;;;;;1.40;0.53;;;13.10;91.90;;;;;;5093608;28;20224;-58
2021/05/22 00:49:23;;;;;;;3.37;0.90;;;13.10;91.80;;;;;;5093328;28;20204;-58
2021/05/22 00:51:49;;;;;;;1.83;0.80;;;13.00;91.70;;;;;;5093798;28;20694;-58
2021/05/22 00:54:16;;;;;;;2.50;0.83;;;13.00;91.70;;;;;;5093547;28;20204;-58
2021/05/22 00:56:42;;;;;;;2.53;0.57;;;13.00;91.60;;;;;;5093606;28;20254;-58
2021/05/22 00:59:14;;;;;;;0.83;0.40;;;13.00;91.60;;;;;;5093404;28;20285;-58
2021/05/22 01:01:41;;;;;;;2.40;0.60;;;12.90;91.60;;;;;;5093760;28;20224;-58
2021/05/22 01:04:07;;;;;;;2.00;0.90;;;12.90;91.60;;;;;;5093438;28;20474;-58
2021/05/22 01:06:34;;;;;;;4.47;0.77;;;12.80;91.70;;;;;;5093403;28;20646;-58
2021/05/22 01:09:05;;;;;;;1.20;1.10;;;12.80;91.70;;;;;;5093206;28;20211;-58
2021/05/22 01:11:37;;;;;;;1.47;0.53;;;12.80;92.10;;;;;;5093405;28;20285;-58
2021/05/22 01:14:08;;;;;;;2.23;0.87;;;12.70;92.00;;;;;;5093619;28;20212;-58
2021/05/22 01:16:35;;;;;;;0.83;0.60;;;12.70;92.20;;;;;;5093378;28;20326;-58
2021/05/22 01:19:06;;;;;;;0.43;0.40;;;12.70;92.20;;;;;;5092938;28;20736;-58
2021/05/22 01:21:36;;;;;;;0.90;0.40;;;12.70;92.30;;;;;;5093040;28;20703;-58
2021/05/22 01:24:06;;;;;;;2.77;0.53;;;12.70;92.30;;;;;;5093268;28;20276;-57
2021/05/22 01:26:33;;;;;;;1.20;0.70;;;12.70;92.30;;;;;;5093084;28;20713;-57
2021/05/22 01:29:01;;;;;;;1.33;0.60;;;12.80;92.30;;;;;;5092918;28;20734;-57
2021/05/22 01:31:28;;;;;;;0.80;0.50;;;12.60;92.40;;;;;;5093113;28;20581;-59
2021/05/22 01:33:54;;;;;;;2.37;0.67;;;12.70;92.40;;;;;;5092947;28;20212;-57
2021/05/22 01:36:21;;;;;;;2.30;0.80;;;12.80;92.40;;;;;;5093173;28;20225;-57
2021/05/22 01:38:47;;;;;;;1.20;0.60;;;12.70;92.30;;;;;;5093399;28;20200;-57
2021/05/22 01:41:14;;;;;;;1.70;0.50;;;12.70;92.60;;;;;;5093038;28;20258;-57
2021/05/22 01:43:45;;;;;;;1.47;0.70;;;12.70;92.50;;;;;;5092716;28;20663;-57
2021/05/22 01:46:11;;;;;;;2.77;0.73;;;12.70;92.50;;;;;;5092831;28;20239;-57
2021/05/22 01:48:38;;;;;;;2.10;0.50;;;12.80;92.50;;;;;;5092743;28;20200;-57
2021/05/22 01:51:06;;;;;;;2.13;0.67;;;12.90;92.40;;;;;;5093162;28;20224;-57
2021/05/22 01:53:36;;;;;;;3.87;0.93;;;12.90;92.30;;;;;;5092740;28;20207;-57
2021/05/22 01:56:04;;;;;;;1.80;0.63;;;13.00;92.30;;;;;;5092958;28;20736;-57
2021/05/22 01:58:30;;;;;;;1.97;0.47;;;13.10;92.30;;;;;;5092980;28;20204;-58
2021/05/22 02:00:57;;;;;;;0.87;0.60;;;13.10;92.60;;;;;;5092230;28;20711;-57
2021/05/22 02:03:30;;;;;;;1.60;0.80;;;13.10;93.40;;;;;;5092113;28;20609;-57
2021/05/22 02:05:58;;;;;;;1.73;0.57;;;13.10;94.60;;;;;;5092400;28;20247;-58
2021/05/22 02:08:25;;;;;;;2.67;0.50;;;13.10;95.60;;;;;;5091962;28;20205;-58
2021/05/22 02:10:52;;;;;;;1.00;0.50;;;12.90;95.20;;;;;;5092330;28;20306;-58
2021/05/22 02:13:19;;;;;;;3.03;0.80;;;13.10;95.40;;;;;;5092343;28;20205;-58
2021/05/22 02:15:50;;;;;;;1.43;0.53;;;13.10;95.60;;;;;;5091749;28;20207;-58
2021/05/22 02:18:18;;;;;;;0.60;0.40;;;13.10;95.40;;;;;;5091854;28;20314;-58
2021/05/22 02:20:46;;;;;;;1.87;0.70;;;12.90;95.10;;;;;;5091782;28;20221;-57
2021/05/22 02:23:14;;;;;;;0.90;0.33;;;12.80;95.60;;;;;;5092064;28;20207;-57
2021/05/22 02:25:41;;;;;;;1.50;0.60;;;12.80;95.70;;;;;;5091741;28;20220;-58
2021/05/22 02:28:09;;;;;;;1.53;0.50;;;12.80;95.90;;;;;;5091758;28;20205;-58
2021/05/22 02:30:40;;;;;;;2.90;0.77;;;12.80;96.10;;;;;;5091902;28;20220;-58
2021/05/22 02:33:07;;;;;;;1.17;0.57;;;12.80;96.30;;;;;;5091650;28;20269;-58
2021/05/22 02:35:40;;;;;;;1.97;0.60;;;12.70;96.40;;;;;;5091022;28;20234;-58
2021/05/22 02:38:08;;;;;;;2.77;0.70;;;12.70;96.40;;;;;;5091754;28;20204;-58
2021/05/22 02:40:34;;;;;;;1.63;0.33;;;12.70;96.50;;;;;;5091616;28;20232;-58
2021/05/22 02:43:04;;;;;;;1.53;0.53;;;12.70;96.70;;;;;;5091550;28;20232;-58
2021/05/22 02:45:34;;;;;;;1.80;0.80;;;12.60;97.00;;;;;;5091442;28;20216;-57
2021/05/22 02:48:03;;;;;;;2.50;0.67;;;12.50;98.00;;;;;;5091339;28;20283;-58
2021/05/22 02:50:30;;;;;;;2.23;0.60;;;12.40;98.80;;;;;;5091625;28;20227;-58
2021/05/22 02:53:00;;;;;;;0.87;0.37;;;12.30;99.90;;;;;;5091574;28;20204;-57
2021/05/22 02:55:26;;;;;;;1.43;0.40;;;12.20;99.90;;;;;;5091661;28;20627;-57
2021/05/22 02:57:53;;;;;;;1.53;0.50;;;12.20;99.90;;;;;;5091278;28;20208;-57
2021/05/22 03:00:21;;;;;;;1.67;0.40;;;12.00;99.90;;;;;;5091736;28;20368;-58
2021/05/22 03:02:48;;;;;;;2.20;0.60;;;11.90;99.90;;;;;;5091595;28;20231;-57
2021/05/22 03:05:15;;;;;;;1.00;0.40;;;11.80;99.90;;;;;;5091232;28;20212;-58
2021/05/22 03:07:41;;;;;;;2.17;0.63;;;11.70;99.90;;;;;;5091337;28;20200;-57
2021/05/22 03:10:09;;;;;;;2.13;0.57;;;11.70;99.90;;;;;;5091461;28;20595;-57
2021/05/22 03:12:37;;;;;;;0.60;0.40;;;11.70;99.90;;;;;;5091373;28;20265;-57
2021/05/22 03:15:05;;;;;;;1.10;0.60;;;11.80;99.90;;;;;;5091087;28;20204;-56
2021/05/22 03:17:32;;;;;;;0.53;0.30;;;11.80;99.90;;;;;;5091412;28;20203;-59
2021/05/22 03:19:58;;;;;;;1.90;0.60;;;11.80;99.90;;;;;;5091095;28;20228;-57
2021/05/22 03:22:24;;;;;;;0.80;0.50;;;11.80;99.90;;;;;;5091002;28;20204;-59
2021/05/22 03:24:51;;;;;;;1.50;0.70;;;11.80;99.90;;;;;;5090832;28;20216;-57
2021/05/22 03:27:19;;;;;;;1.70;0.53;;;11.70;99.90;;;;;;5090802;28;20231;-57
2021/05/22 03:29:46;;;;;;;1.27;0.70;;;11.70;99.90;;;;;;5090546;28;20587;-57
2021/05/22 03:32:12;;;;;;;1.70;0.50;;;11.70;99.90;;;;;;5091275;28;20204;-57
2021/05/22 03:34:39;;;;;;;0.93;0.63;;;11.70;99.90;;;;;;5090896;28;20311;-58
2021/05/22 03:37:05;;;;;;;1.37;0.50;;;11.70;99.90;;;;;;5091598;28;20212;-57
2021/05/22 03:39:31;;;;;;;1.83;0.60;;;11.60;99.90;;;;;;5090710;28;20216;-57
2021/05/22 03:41:57;;;;;;;0.60;0.50;;;11.70;99.90;;;;;;5091605;28;20222;-58
2021/05/22 03:44:25;;;;;;;1.67;0.50;;;11.70;99.90;;;;;;5090583;28;20204;-58
2021/05/22 03:46:51;;;;;;;1.90;0.73;;;11.80;99.90;;;;;;5091791;28;20228;-58
2021/05/22 03:49:17;;;;;;;0.87;0.50;;;11.80;99.90;;;;;;5094933;28;20208;-58
2021/05/22 03:51:43;;;;;;;3.47;0.80;;;11.90;99.90;;;;;;5094982;28;20220;-58
2021/05/22 03:54:10;;;;;;;2.13;0.50;;;11.80;99.90;;;;;;5094684;28;20204;-58
2021/05/22 03:56:36;;;;;;;1.83;0.60;;;11.80;99.90;;;;;;5094679;28;20208;-58
2021/05/22 03:59:02;;;;;;;2.07;0.83;;;11.80;99.90;;;;;;5094771;28;20204;-58
2021/05/22 04:01:29;;;;;;;1.97;0.90;;;11.90;99.90;;;;;;5094782;28;20611;-58
2021/05/22 04:03:56;;;;;;;1.63;1.00;;;11.90;99.90;;;;;;5094877;28;20208;-58
2021/05/22 04:06:22;;;;;;;2.70;1.50;;;12.00;99.90;;;;;;5094947;28;20227;-58
2021/05/22 04:08:48;;;;;;;1.97;0.80;;;12.00;99.90;;;;;;5094590;28;20208;-58
2021/05/22 04:11:14;;;;;;;2.50;1.13;;;12.10;99.90;;;;;;5094445;28;20251;-58
2021/05/22 04:13:41;;;;;;;2.67;1.10;;;12.10;99.90;;;;;;5094811;28;20208;-58
2021/05/22 04:16:07;;;;;;;2.17;1.10;;;12.10;99.90;;;;;;5094348;28;20617;-58
2021/05/22 04:18:34;;;;;;;2.57;1.00;;;12.10;99.90;;;;;;5094369;28;20231;-58
2021/05/22 04:21:00;;;;;;;3.40;1.23;;;12.20;99.90;;;;;;5094273;28;20228;-58
2021/05/22 04:23:26;;;;;;;2.70;1.23;;;12.30;99.90;;;;;;5094045;28;20208;-58
2021/05/22 04:25:53;;;;;;;3.83;1.40;;;12.30;99.90;;;;;;5093957;28;20586;-58
2021/05/22 04:28:19;;;;;;;2.40;0.97;;;12.30;99.90;;;;;;5093915;28;20668;-58
2021/05/22 04:30:45;;;;;;;3.90;1.20;;;12.40;99.90;;;;;;5094099;28;20224;-58
2021/05/22 04:33:11;;;;;;;2.40;0.97;;;12.40;99.90;;;;;;5094115;28;20211;-58
2021/05/22 04:35:38;;;;;;;2.70;1.33;;;12.40;99.90;;;;;;5093932;28;20295;-58
2021/05/22 04:38:05;;;;;;;3.97;0.93;;;12.50;99.90;;;;;;5093822;28;20257;-58
2021/05/22 04:40:31;;;;;;;2.87;1.17;;;12.50;99.90;;;;;;5093548;28;20425;-59
2021/05/22 04:42:57;;;;;;;3.67;1.10;;;12.60;99.90;;;;;;5093960;28;20204;-59
2021/05/22 04:45:23;;;;;;;2.43;0.90;;;12.70;99.90;;;;;;5093759;28;20575;-59
2021/05/22 04:47:50;;;;;;;1.93;1.00;;;12.80;99.90;;;;;;5093888;28;20677;-59
2021/05/22 04:50:16;;;;;;;2.97;0.80;;;12.90;99.90;;;;;;5093874;28;20225;-59
2021/05/22 04:52:43;;;;;;;1.57;0.93;;;12.90;99.90;;;;;;5093526;28;20295;-59
2021/05/22 04:55:11;;;;;;;2.50;1.00;;;13.00;99.90;;;;;;5093441;28;20219;-59
2021/05/22 04:57:37;;;;;;;1.20;0.80;;;13.00;99.90;;;;;;5093372;28;20249;-59
2021/05/22 05:00:04;;;;;;;2.63;1.30;;;13.00;99.90;;;;;;5093625;28;20228;-59
2021/05/22 05:02:31;;;;;;;1.90;0.70;;;13.00;99.90;;;;;;5093727;28;20200;-59
2021/05/22 05:04:57;;;;;;;2.27;0.90;;;12.90;99.90;;;;;;5093636;28;20686;-59
2021/05/22 05:07:23;;;;;;;1.97;0.80;;;12.80;99.90;;;;;;5093329;28;20220;-58
2021/05/22 05:09:51;;;;;;;3.07;0.70;;;12.90;99.90;;;;;;5093788;28;20224;-58
2021/05/22 05:12:18;;;;;;;14.80;10.20;;;12.90;99.90;;;;;;5093959;28;20204;-58
2021/05/22 05:14:44;;;;;;;2.00;0.97;;;13.00;99.90;;;;;;5093509;28;20239;-58
2021/05/22 05:17:10;;;;;;;1.20;0.63;;;13.10;99.90;;;;;;5093448;28;20632;-58
2021/05/22 05:19:36;;;;;;;1.60;0.80;;;13.30;99.90;;;;;;5093146;28;20208;-58
2021/05/22 05:22:03;;;;;;;1.87;1.10;;;13.70;99.90;;;;;;5093297;28;20257;-57
2021/05/22 05:24:29;;;;;;;1.27;0.80;;;14.00;99.30;;;;;;5093241;28;20265;-57
2021/05/22 05:26:56;;;;;;;1.57;0.73;;;14.20;98.90;;;;;;5093455;28;20263;-58
2021/05/22 05:29:24;;;;;;;1.10;0.73;;;14.70;98.70;;;;;;5093168;28;20233;-58
2021/05/22 05:31:50;;;;;;;2.33;0.73;;;16.40;95.80;;;;;;5093373;28;20207;-58
2021/05/22 05:34:16;;;;;;;2.43;1.10;;;18.50;91.60;;;;;;5092939;28;20200;-58
2021/05/22 05:36:42;;;;;;;1.58;0.93;;;19.60;89.30;;;;;;5093065;28;20578;-60
2021/05/22 05:39:10;;;;;;;4.07;0.82;;;20.90;84.80;;;;;;5093064;28;20212;-58
2021/05/22 05:41:36;;;;;;;1.75;0.70;;;22.50;77.50;;;;;;5092637;28;20242;-58
2021/05/22 05:44:04;;;;;;;1.17;0.77;;;23.90;72.20;;;;;;5092643;28;20212;-58
2021/05/22 05:46:30;;;;;;;1.08;0.75;;;25.20;67.50;;;;;;5092756;28;20220;-58
2021/05/22 05:48:57;;;;;;;2.00;1.00;;;26.50;60.90;;;;;;5092359;28;20253;-59
2021/05/22 05:51:23;;;;;;;1.30;0.70;;;27.50;57.80;;;;;;5092255;28;20220;-59
2021/05/22 05:53:49;;;;;;;2.88;0.50;;;27.10;56.50;;;;;;5092440;28;20212;-59
2021/05/22 05:56:15;;;;;;;4.25;0.70;;;26.90;57.20;;;;;;5092486;28;20200;-59
2021/05/22 05:58:41;;;;;;;1.73;0.82;;;27.90;55.20;;;;;;5092226;28;20215;-59
2021/05/22 06:01:10;;;;;;;1.63;0.52;;;29.00;53.70;;;;;;5092303;28;20325;-60
2021/05/22 06:03:36;;;;;;;1.60;0.65;;;29.10;51.20;;;;;;5092019;28;20223;-60
2021/05/22 06:06:04;;;;;;;3.35;0.88;;;28.40;51.60;;;;;;5092389;28;20224;-59
2021/05/22 06:08:30;;;;;;;2.22;1.10;;;27.30;54.10;;;;;;5092126;28;20206;-59
2021/05/22 06:10:57;;;;;;;2.08;0.90;;;27.60;53.60;;;;;;5091437;28;20834;-59
2021/05/22 06:13:25;;;;;;;1.63;0.90;;;28.60;52.10;;;;;;5092349;28;20204;-59
2021/05/22 06:15:59;;;;;;;3.33;1.15;;;29.70;49.70;;;;;;5092050;28;20576;-58
2021/05/22 06:18:29;;;;;;;2.65;1.10;;;30.20;48.50;;;;;;5091721;28;20568;-59
2021/05/22 06:20:55;;;;;;;2.40;1.20;;;30.80;47.40;;;;;;5092096;28;20247;-59
2021/05/22 06:23:21;;;;;;;2.28;1.02;;;31.00;46.10;;;;;;5092162;28;20204;-59
2021/05/22 06:25:47;;;;;;;4.47;1.52;;;30.80;45.70;;;;;;5092023;28;20227;-59
2021/05/22 06:28:14;;;;;;;2.75;1.55;;;31.20;45.10;;;;;;5091862;28;20204;-58
2021/05/22 06:30:40;;;;;;;1.77;0.95;;;31.70;44.50;;;;;;5092194;28;20228;-58
2021/05/22 06:33:06;;;;;;;2.35;1.40;;;32.20;43.60;;;;;;5091642;28;20200;-59
2021/05/22 06:35:33;;;;;;;2.45;0.95;;;33.10;42.30;;;;;;5091698;28;20231;-58
2021/05/22 06:37:59;;;;;;;9.77;4.90;;;33.20;41.40;;;;;;5091720;28;20204;-58
2021/05/22 06:40:26;;;;;;;1.58;0.70;;;33.60;41.30;;;;;;5091484;28;20232;-59
2021/05/22 06:42:52;;;;;;;5.55;1.35;;;34.50;39.90;;;;;;5091565;28;20209;-60
2021/05/22 06:45:21;;;;;;;3.33;1.55;;;34.70;39.10;;;;;;5091578;28;20203;-59
2021/05/22 06:47:48;;;;;;;3.33;1.10;;;34.00;39.40;;;;;;5091541;28;20228;-59
2021/05/22 06:50:14;;;;;;;4.20;2.47;;;33.50;39.20;;;;;;5091480;28;20607;-59
2021/05/22 06:52:41;;;;;;;4.07;1.70;;;32.90;40.00;;;;;;5091644;28;20204;-59
2021/05/22 06:55:08;;;;;;;1.67;0.77;;;31.60;41.50;;;;;;5091383;28;20208;-59
2021/05/22 06:57:35;;;;;;;3.10;1.30;;;31.00;42.20;;;;;;5091192;28;20698;-59
2021/05/22 07:00:01;;;;;;;2.92;1.05;;;30.60;43.20;;;;;;5091102;28;20247;-59
2021/05/22 07:02:27;;;;;;;1.73;1.08;;;30.60;43.70;;;;;;5091680;28;20256;-59
2021/05/22 07:04:53;;;;;;;2.67;0.82;;;30.30;43.50;;;;;;5091300;28;20687;-60
2021/05/22 07:07:19;;;;;;;2.53;1.20;;;29.70;44.00;;;;;;5091575;28;20219;-60
2021/05/22 07:09:46;;;;;;;2.47;1.05;;;29.10;44.90;;;;;;5091202;28;20746;-59
2021/05/22 07:12:13;;;;;;;3.35;1.23;;;28.80;45.10;;;;;;5091310;28;20212;-59
2021/05/22 07:14:39;;;;;;;2.03;1.05;;;28.30;45.90;;;;;;5091098;28;20216;-59
2021/05/22 07:17:05;;;;;;;3.92;1.30;;;27.30;47.00;;;;;;5091015;28;20208;-60
2021/05/22 07:19:32;;;;;;;5.32;2.50;;;26.50;48.90;;;;;;5090895;28;20208;-60
2021/05/22 07:21:59;;;;;;;6.50;2.95;;;25.70;51.20;;;;;;5090844;28;20303;-59
2021/05/22 07:24:25;;;;;;;3.42;1.42;;;24.70;52.30;;;;;;5091074;28;20247;-59
2021/05/22 07:26:52;;;;;;;3.58;1.52;;;23.70;54.30;;;;;;5090870;28;20231;-59
2021/05/22 07:29:19;;;;;;;2.88;1.10;;;23.10;54.00;;;;;;5091059;28;20200;-59
2021/05/22 07:31:45;;;;;;;3.95;0.93;;;23.10;53.70;;;;;;5091084;28;20235;-59
2021/05/22 07:34:12;;;;;;;5.18;1.30;;;22.70;54.60;;;;;;5091006;28;20200;-59
2021/05/22 07:36:40;;;;;;;2.97;1.42;;;22.30;55.40;;;;;;5091346;28;20261;-59
2021/05/22 07:39:09;;;;;;;2.80;1.13;;;21.90;57.00;;;;;;5090788;28;20572;-59
2021/05/22 07:41:36;;;;;;;3.95;1.10;;;21.30;59.10;;;;;;5090811;28;20235;-59
2021/05/22 07:44:04;;;;;;;4.15;1.27;;;20.80;61.00;;;;;;5090638;28;20663;-58
2021/05/22 07:46:30;;;;;;;10.35;4.80;;;20.60;62.10;;;;;;5090921;28;20227;-59
2021/05/22 07:48:56;;;;;;;4.32;1.50;;;21.00;61.00;;;;;;5090815;28;20204;-59
2021/05/22 07:51:22;;;;;;;6.38;1.17;;;21.20;59.80;;;;;;5090889;28;20220;-59
2021/05/22 07:53:49;;;;;;;4.55;1.27;;;21.20;59.40;;;;;;5091311;28;20215;-59
2021/05/22 07:56:15;;;;;;;2.05;1.15;;;21.20;58.90;;;;;;5090702;28;20214;-59
2021/05/22 07:58:42;;;;;;;4.45;1.60;;;21.10;59.60;;;;;;5090853;28;20463;-60
2021/05/22 08:01:09;;;;;;;3.05;1.20;;;21.00;59.80;;;;;;5090745;28;20326;-60
2021/05/22 08:03:35;;;;;;;3.53;1.30;;;20.80;59.70;;;;;;5090447;28;20212;-58
2021/05/22 08:06:01;;;;;;;3.75;1.00;;;21.10;59.70;;;;;;5091068;28;20228;-58
2021/05/22 08:08:27;;;;;;;2.55;1.00;;;21.70;59.40;;;;;;5091001;28;20254;-58
2021/05/22 08:10:54;;;;;;;4.10;1.25;;;22.50;58.00;;;;;;5090638;28;20228;-59
2021/05/22 08:13:20;;;;;;;4.57;0.85;;;22.80;56.50;;;;;;5090404;28;20220;-59
2021/05/22 08:15:46;;;;;;;2.67;1.17;;;24.00;54.10;;;;;;5090643;28;20220;-59
2021/05/22 08:18:13;;;;;;;6.95;3.63;;;24.40;52.80;;;;;;5090584;28;20262;-59
2021/05/22 08:20:40;;;;;;;3.35;1.02;;;24.30;53.80;;;;;;5090800;28;20228;-59
2021/05/22 08:23:07;;;;;;;4.00;1.30;;;24.10;53.80;;;;;;5090513;28;20257;-58
2021/05/22 08:25:33;;;;;;;5.03;1.30;;;24.50;54.10;;;;;;5090246;28;20261;-60
2021/05/22 08:27:59;;;;;;;3.22;1.13;;;26.20;50.00;;;;;;5090553;28;20212;-60
2021/05/22 08:30:25;;;;;;;4.50;1.15;;;27.70;45.70;;;;;;5090656;28;20224;-62
2021/05/22 08:32:52;;;;;;;4.00;0.90;;;28.60;43.50;;;;;;5092809;28;20617;-64
2021/05/22 08:35:19;;;;;;;1.50;0.80;;;28.90;41.00;;;;;;5094418;28;20215;-58
2021/05/22 08:37:45;;;;;;;1.67;0.82;;;28.90;40.40;;;;;;5094410;28;20695;-58
2021/05/22 08:40:13;;;;;;;3.75;0.73;;;28.40;40.70;;;;;;5094299;28;20231;-58
2021/05/22 08:42:39;;;;;;;2.58;1.50;;;27.50;42.30;;;;;;5094118;28;20227;-58
2021/05/22 08:45:08;;;;;;;6.38;1.85;;;26.30;43.30;;;;;;5093949;28;20204;-58
2021/05/22 08:47:34;;;;;;;3.25;1.10;;;25.40;45.30;;;;;;5093757;28;20281;-58
2021/05/22 08:50:01;;;;;;;2.78;1.00;;;24.70;46.40;;;;;;5093647;28;20224;-58
2021/05/22 08:52:28;;;;;;;2.65;1.00;;;24.20;46.70;;;;;;5093180;28;20211;-58
2021/05/22 08:54:54;;;;;;;1.80;0.90;;;23.70;46.40;;;;;;5093776;28;20601;-58
2021/05/22 08:57:21;;;;;;;3.63;0.90;;;23.30;47.70;;;;;;5093683;28;20246;-58
2021/05/22 08:59:48;;;;;;;1.83;0.98;;;22.70;48.20;;;;;;5093449;28;20234;-58
2021/05/22 09:02:17;;;;;;;5.13;1.48;;;22.40;49.70;;;;;;5093536;28;20585;-59
2021/05/22 09:05:04;;;;;;;5.07;1.10;;;22.20;49.60;;;;;;5093495;28;20339;-58
2021/05/22 09:07:32;;;;;;;2.35;1.00;;;21.90;50.10;;;;;;5093577;28;20224;-59
2021/05/22 09:10:05;;;;;;;4.03;1.20;;;21.50;50.30;;;;;;5093394;28;20228;-59
2021/05/22 09:12:34;;;;;;;6.57;1.35;;;21.40;50.40;;;;;;5093528;28;20200;-59
2021/05/22 09:15:06;;;;;;;2.90;0.95;;;21.50;50.30;;;;;;5093365;28;20205;-59
2021/05/22 09:17:32;;;;;;;3.97;1.50;;;21.40;50.20;;;;;;5093346;28;20200;-60
2021/05/22 09:20:15;;;;;;;4.80;1.35;;;21.30;51.00;;;;;;5093449;28;20224;-58
2021/05/22 09:22:42;;;;;;;3.55;1.20;;;21.10;50.40;;;;;;5093408;28;20204;-58
2021/05/22 09:25:10;;;;;;;2.72;1.20;;;21.10;50.30;;;;;;5093273;28;20314;-58
2021/05/22 09:27:38;;;;;;;3.22;1.27;;;21.20;50.00;;;;;;5092857;28;20719;-57
2021/05/22 09:30:07;;;;;;;3.00;1.10;;;21.20;50.30;;;;;;5092786;28;20234;-59
2021/05/22 09:32:33;;;;;;;4.93;1.33;;;21.10;49.40;;;;;;5093099;28;20205;-59
2021/05/22 09:35:00;;;;;;;2.92;0.90;;;21.00;49.20;;;;;;5093016;28;20220;-57
2021/05/22 09:37:26;;;;;;;3.88;1.00;;;20.90;49.10;;;;;;5092991;28;20196;-58
2021/05/22 09:39:53;;;;;;;3.25;1.10;;;20.90;49.80;;;;;;5116243;22;20792;-61
2021/05/22 09:42:26;;;;;;;3.97;1.10;;;20.90;49.70;;;;;;5092526;28;20239;-60
2021/05/22 09:44:53;;;;;;;3.08;0.80;;;21.10;48.60;;;;;;5092011;28;20211;-60
2021/05/22 09:47:20;;;;;;;2.63;1.58;;;21.00;49.70;;;;;;5093161;28;20228;-60
2021/05/22 09:49:49;;;;;;;3.05;0.82;;;21.00;49.50;;;;;;5093076;28;20707;-59
2021/05/22 09:52:16;;;;;;;3.78;1.08;;;21.00;47.30;;;;;;5092814;28;20200;-60
2021/05/22 09:54:48;;;;;;;8.32;5.70;;;20.90;47.40;;;;;;5092617;28;20212;-60
2021/05/22 09:57:17;;;;;;;5.22;1.30;;;21.00;47.40;;;;;;5092356;28;20204;-60
2021/05/22 09:59:59;;;;;;;4.43;1.00;;;21.10;49.90;;;;;;5092521;28;20677;-60
2021/05/22 10:02:39;;;;;;;2.03;0.82;;;21.40;48.80;;;;;;5092457;28;20588;-60
2021/05/22 10:05:12;;;;;;;2.35;0.80;;;21.60;49.50;;;;;;5092376;28;20211;-60
2021/05/22 10:07:39;;;;;;;2.75;0.98;;;21.80;49.20;;;;;;5092529;28;20224;-60
2021/05/22 10:10:06;;;;;;;1.70;0.70;;;21.90;48.70;;;;;;5092492;28;20239;-61
2021/05/22 10:12:36;;;;;;;2.45;0.70;;;22.10;47.10;;;;;;5092800;28;20215;-59
2021/05/22 10:15:03;;;;;;;3.28;0.93;;;22.40;45.30;;;;;;5092918;28;20208;-59
2021/05/22 10:17:29;;;;;;;3.75;1.80;;;22.30;45.50;;;;;;5092325;28;20554;-64
2021/05/22 10:19:57;;;;;;;1.60;0.68;;;22.10;45.20;;;;;;5092098;28;20211;-60
2021/05/22 10:22:23;;;;;;;2.38;0.80;;;21.90;44.00;;;;;;5092598;28;20208;-60
2021/05/22 10:24:52;;;;;;;3.28;0.93;;;21.70;44.40;;;;;;5092165;28;20686;-60
2021/05/22 10:27:20;;;;;;;7.85;0.95;;;21.60;44.40;;;;;;5092381;28;20231;-60
2021/05/22 10:29:47;;;;;;;3.83;0.80;;;21.50;44.90;;;;;;5092474;28;20619;-61
2021/05/22 10:32:22;;;;;;;2.83;1.00;;;21.50;44.60;;;;;;5092558;28;20204;-60
2021/05/22 10:34:50;;;;;;;1.80;0.70;;;21.50;44.20;;;;;;5092231;28;20760;-61
2021/05/22 10:37:43;;;;;;;2.10;0.85;;;21.50;44.30;;;;;;5092221;28;20215;-61
2021/05/22 10:40:11;;;;;;;3.38;0.90;;;21.50;43.70;;;;;;5091658;28;20232;-60
2021/05/22 10:42:53;;;;;;;4.72;1.00;;;21.50;43.20;;;;;;5092159;28;20211;-61
2021/05/22 10:45:34;;;;;;;13.52;9.02;;;21.60;44.10;;;;;;5091644;28;20210;-60
2021/05/22 10:48:02;;;;;;;2.05;0.85;;;21.60;44.50;;;;;;5092181;28;20260;-60
2021/05/22 10:50:44;;;;;;;3.72;1.20;;;21.70;44.50;;;;;;5091801;28;20228;-61
2021/05/22 10:53:36;;;;;;;3.13;0.88;;;21.80;44.80;;;;;;5091835;28;20200;-62
2021/05/22 10:56:04;;;;;;;2.15;1.10;;;22.00;44.90;;;;;;5091470;28;20668;-60
2021/05/22 10:58:30;;;;;;;3.20;1.42;;;22.20;45.00;;;;;;5091635;28;20623;-60
2021/05/22 11:01:30;;;;;;;2.63;1.00;;;22.20;45.30;;;;;;5092060;28;20228;-60
2021/05/22 11:04:25;;;;;;;3.28;0.80;;;22.10;45.40;;;;;;5091566;28;20204;-60
2021/05/22 11:06:54;;;;;;;1.92;0.98;;;21.90;44.00;;;;;;5073921;28;20220;-59
2021/05/22 11:09:43;;;;;;;3.60;1.20;;;21.80;43.10;;;;;;5091348;28;20261;-60
2021/05/22 11:12:41;;;;;;;1.60;0.80;;;21.70;43.50;;;;;;5091127;28;20251;-59
2021/05/22 11:15:44;;;;;;;2.95;1.10;;;21.60;42.60;;;;;;5091867;28;20200;-60
2021/05/22 11:18:11;;;;;;;3.33;0.93;;;21.50;42.90;;;;;;5091675;28;20582;-59
2021/05/22 11:20:41;;;;;;;3.47;0.70;;;21.40;43.60;;;;;;5091675;28;20236;-60
2021/05/22 11:23:07;;;;;;;4.95;0.80;;;21.50;43.00;;;;;;5091795;28;20229;-61
2021/05/22 11:25:48;;;;;;;3.28;0.90;;;21.50;42.70;;;;;;5091365;28;20236;-60
2021/05/22 11:28:18;;;;;;;2.42;0.70;;;21.50;42.60;;;;;;5091630;28;20199;-60
2021/05/22 11:30:51;;;;;;;5.35;0.95;;;21.60;41.60;;;;;;5091286;28;20228;-60
2021/05/22 11:33:29;;;;;;;2.83;0.98;;;21.70;42.30;;;;;;5091500;28;20694;-60
2021/05/22 11:35:57;;;;;;;1.27;0.77;;;21.70;42.00;;;;;;5091360;28;20207;-61
2021/05/22 11:38:35;;;;;;;2.22;0.90;;;21.80;42.60;;;;;;5090911;28;20673;-61
2021/05/22 11:41:09;;;;;;;3.13;1.10;;;21.90;42.30;;;;;;5090858;28;20650;-61
2021/05/22 11:43:40;;;;;;;2.35;0.90;;;22.10;43.30;;;;;;5091168;28;20203;-60
2021/05/22 11:46:08;;;;;;;2.25;0.90;;;22.50;43.40;;;;;;5091309;28;20208;-60
2021/05/22 11:48:37;;;;;;;2.65;1.10;;;22.80;41.90;;;;;;5091119;28;20204;-60
2021/05/22 11:51:08;;;;;;;3.53;1.10;;;22.90;41.30;;;;;;5091045;28;20232;-60
2021/05/22 11:53:36;;;;;;;2.65;0.90;;;22.90;41.10;;;;;;5091066;28;20262;-61
2021/05/22 11:56:05;;;;;;;3.10;1.00;;;22.80;41.30;;;;;;5091204;28;20199;-60
2021/05/22 11:58:32;;;;;;;4.60;1.08;;;23.00;40.50;;;;;;5090998;28;20284;-60
2021/05/22 12:01:20;;;;;;;1.13;0.70;;;23.30;40.20;;;;;;5091253;28;20581;-60
2021/05/22 12:03:48;;;;;;;3.35;0.98;;;23.70;39.90;;;;;;5085093;28;20209;-60
2021/05/22 12:06:30;;;;;;;3.58;0.80;;;23.70;39.20;;;;;;5090813;28;20220;-60
2021/05/22 12:09:07;;;;;;;6.20;1.25;;;23.50;38.60;;;;;;5093736;28;20304;-60
2021/05/22 12:11:34;;;;;;;5.40;1.90;;;23.30;39.80;;;;;;5094533;28;20228;-60
2021/05/22 12:14:02;;;;;;;3.95;1.80;;;23.30;41.00;;;;;;5094631;28;20207;-60
2021/05/22 12:16:29;;;;;;;2.53;0.82;;;23.20;41.30;;;;;;5094744;28;20212;-59
2021/05/22 12:18:56;;;;;;;5.22;1.40;;;23.00;41.30;;;;;;5094328;28;20231;-60
2021/05/22 12:21:29;;;;;;;3.30;1.85;;;22.90;41.50;;;;;;5094512;28;20224;-60
2021/05/22 12:24:06;;;;;;;2.70;0.90;;;23.10;41.30;;;;;;5094175;28;20671;-59
2021/05/22 12:26:35;;;;;;;4.43;1.38;;;23.10;41.10;;;;;;5094292;28;20219;-59
2021/05/22 12:29:01;;;;;;;2.92;1.13;;;23.10;41.90;;;;;;5094163;28;20204;-59
2021/05/22 12:31:27;;;;;;;1.95;0.80;;;23.20;41.50;;;;;;5094228;28;20230;-61
2021/05/22 12:33:59;;;;;;;3.45;1.00;;;23.30;41.10;;;;;;5093931;28;20209;-61
2021/05/22 12:36:27;;;;;;;2.17;1.00;;;23.30;41.40;;;;;;5094046;28;20201;-60
2021/05/22 12:38:53;;;;;;;2.03;1.05;;;23.20;41.50;;;;;;5093798;28;20579;-60
2021/05/22 12:41:32;;;;;;;2.13;0.95;;;23.40;41.80;;;;;;5094193;28;20239;-60
2021/05/22 12:43:59;;;;;;;1.58;0.90;;;23.60;40.10;;;;;;5094193;28;20570;-60
2021/05/22 12:46:27;;;;;;;4.18;1.13;;;23.80;40.30;;;;;;5094019;28;20223;-60
2021/05/22 12:49:11;;;;;;;7.15;1.00;;;23.80;39.60;;;;;;5093683;28;20204;-60
2021/05/22 12:51:39;;;;;;;2.53;0.95;;;23.80;40.20;;;;;;5093659;28;20611;-59